Time;durP1;ratioP1;P1;durP2;ratioP2;P2;SDS_P1;SDS_P2;PMS_P1;PMS_P2;Temp;Humidity;BMP_temperature;BMP_pressure;BME280_temperature;BME280_humidity;BME280_pressure;Samples;Min_cycle;Max_cycle;Signal;HPM_P1;HPM_P2
2022/03/01 00:00:00;;;;;;;10.40;8.07;;;9.60;51.10;;;;;;5054134;28;20424;-76
2022/03/01 00:02:26;;;;;;;9.43;8.20;;;9.60;50.60;;;;;;5054817;28;20448;-67
2022/03/01 00:04:53;;;;;;;9.07;8.17;;;9.60;51.00;;;;;;5055269;28;20427;-67
2022/03/01 00:07:19;;;;;;;7.83;7.13;;;9.70;51.40;;;;;;5054244;28;20259;-67
2022/03/01 00:09:44;;;;;;;7.80;7.00;;;9.70;51.50;;;;;;5052684;28;20453;-66
2022/03/01 00:12:10;;;;;;;9.57;8.57;;;9.70;52.00;;;;;;5054294;28;20409;-66
2022/03/01 00:14:36;;;;;;;8.43;7.63;;;9.70;52.90;;;;;;5053577;28;20190;-66
2022/03/01 00:17:02;;;;;;;9.10;8.20;;;9.60;54.10;;;;;;5052469;28;20423;-67
2022/03/01 00:19:29;;;;;;;9.37;8.47;;;9.50;54.90;;;;;;5053220;28;20413;-66
2022/03/01 00:21:56;;;;;;;11.80;10.60;;;9.40;55.60;;;;;;5054681;28;20490;-67
2022/03/01 00:24:21;;;;;;;11.90;10.07;;;9.20;56.20;;;;;;5052585;28;20451;-66
2022/03/01 00:26:47;;;;;;;13.30;11.20;;;9.10;56.90;;;;;;5054236;28;20448;-67
2022/03/01 00:29:13;;;;;;;13.93;11.60;;;9.00;57.80;;;;;;5052248;28;20581;-67
2022/03/01 00:31:39;;;;;;;16.67;13.23;;;8.80;58.30;;;;;;5053775;28;20452;-67
2022/03/01 00:34:04;;;;;;;14.90;12.30;;;8.70;59.00;;;;;;5053527;28;20296;-67
2022/03/01 00:36:31;;;;;;;14.07;12.63;;;8.60;59.10;;;;;;5054236;28;20173;-67
2022/03/01 00:38:56;;;;;;;14.53;12.43;;;8.50;59.40;;;;;;5051157;28;20217;-66
2022/03/01 00:41:22;;;;;;;15.70;12.30;;;8.40;60.40;;;;;;5053239;28;20452;-66
2022/03/01 00:43:48;;;;;;;16.97;12.07;;;8.40;61.10;;;;;;5054500;28;20177;-66
2022/03/01 00:46:13;;;;;;;15.57;12.00;;;8.30;61.00;;;;;;5052042;28;20519;-66
2022/03/01 00:48:39;;;;;;;17.67;12.10;;;8.20;60.70;;;;;;5053792;28;20641;-66
2022/03/01 00:51:06;;;;;;;11.50;10.30;;;8.20;61.40;;;;;;5053378;28;20479;-67
2022/03/01 00:53:31;;;;;;;14.13;11.20;;;8.20;61.10;;;;;;5054139;28;20493;-67
2022/03/01 00:55:57;;;;;;;14.70;10.53;;;8.10;60.80;;;;;;5052699;28;20883;-67
2022/03/01 00:58:23;;;;;;;13.97;10.83;;;8.00;60.90;;;;;;5053335;28;20256;-66
2022/03/01 01:00:48;;;;;;;12.00;9.93;;;8.00;61.40;;;;;;5053611;28;20178;-66
2022/03/01 01:03:14;;;;;;;12.37;9.77;;;8.00;61.50;;;;;;5052656;28;20507;-66
2022/03/01 01:05:40;;;;;;;13.80;10.23;;;7.90;61.30;;;;;;5052555;28;20187;-67
2022/03/01 01:08:05;;;;;;;13.10;11.10;;;7.80;62.10;;;;;;5050773;28;20260;-71
2022/03/01 01:10:31;;;;;;;11.53;10.07;;;7.80;62.40;;;;;;5051846;28;20184;-66
2022/03/01 01:12:57;;;;;;;19.33;10.73;;;7.70;62.60;;;;;;5052043;28;20298;-66
2022/03/01 01:15:23;;;;;;;15.60;10.87;;;7.70;63.20;;;;;;5051155;28;20181;-66
2022/03/01 01:17:48;;;;;;;12.90;9.83;;;7.70;63.30;;;;;;5053619;28;20306;-67
2022/03/01 01:20:16;;;;;;;14.47;10.87;;;7.60;63.20;;;;;;5051279;28;20731;-67
2022/03/01 01:22:42;;;;;;;10.87;9.47;;;7.60;63.10;;;;;;5049092;28;20192;-67
2022/03/01 01:25:11;;;;;;;13.50;10.57;;;7.50;63.50;;;;;;5052665;28;20402;-67
2022/03/01 01:27:40;;;;;;;13.43;10.70;;;7.50;63.90;;;;;;5053335;28;20532;-66
2022/03/01 01:30:11;;;;;;;11.83;10.60;;;7.50;64.30;;;;;;5052800;28;20418;-76
2022/03/01 01:32:37;;;;;;;14.90;10.00;;;7.40;64.50;;;;;;5053656;28;20484;-67
2022/03/01 01:35:05;;;;;;;16.43;11.63;;;7.40;64.70;;;;;;5052056;28;20434;-72
2022/03/01 01:37:31;;;;;;;13.23;11.00;;;7.30;64.60;;;;;;5052856;28;20409;-66
2022/03/01 01:39:57;;;;;;;13.70;10.87;;;7.20;64.70;;;;;;5053072;28;20414;-66
2022/03/01 01:42:23;;;;;;;12.73;10.57;;;7.20;65.50;;;;;;5051192;28;20436;-66
2022/03/01 01:44:48;;;;;;;15.07;10.43;;;7.20;67.30;;;;;;5052690;28;20263;-66
2022/03/01 01:47:14;;;;;;;14.20;10.97;;;7.10;67.50;;;;;;5052035;28;20644;-66
2022/03/01 01:49:40;;;;;;;13.50;10.83;;;7.10;68.10;;;;;;5053413;28;20176;-66
2022/03/01 01:52:06;;;;;;;13.23;11.67;;;7.00;67.80;;;;;;5052142;28;20899;-66
2022/03/01 01:54:32;;;;;;;13.43;11.00;;;6.90;67.60;;;;;;5052055;28;20178;-68
2022/03/01 01:56:58;;;;;;;14.57;11.73;;;6.90;67.90;;;;;;5052989;28;20754;-67
2022/03/01 01:59:24;;;;;;;15.63;12.67;;;6.90;68.20;;;;;;5049836;28;20685;-67
2022/03/01 02:01:49;;;;;;;14.03;11.13;;;6.80;68.70;;;;;;5052297;28;20559;-67
2022/03/01 02:04:15;;;;;;;15.67;12.00;;;6.80;68.80;;;;;;5051975;28;20183;-67
2022/03/01 02:06:54;;;;;;;16.10;12.20;;;6.70;68.90;;;;;;5052854;28;20636;-67
2022/03/01 02:09:20;;;;;;;14.50;11.40;;;6.70;69.00;;;;;;5051780;28;20216;-67
2022/03/01 02:11:46;;;;;;;16.37;11.70;;;6.70;69.20;;;;;;5051246;28;20445;-67
2022/03/01 02:14:12;;;;;;;16.35;11.23;;;6.70;69.30;;;;;;5051313;28;20465;-67
2022/03/01 02:16:39;;;;;;;17.93;12.50;;;6.60;69.90;;;;;;5052477;28;20531;-67
2022/03/01 02:19:05;;;;;;;16.50;12.50;;;6.60;70.30;;;;;;5049845;28;20421;-76
2022/03/01 02:21:31;;;;;;;15.40;12.07;;;6.60;70.70;;;;;;5052065;28;20460;-67
2022/03/01 02:23:57;;;;;;;15.10;12.13;;;6.40;70.80;;;;;;5052785;28;20280;-67
2022/03/01 02:26:23;;;;;;;16.80;12.53;;;6.30;71.90;;;;;;5051556;28;20439;-67
2022/03/01 02:28:49;;;;;;;15.80;11.67;;;6.50;72.00;;;;;;5052480;28;20408;-67
2022/03/01 02:31:15;;;;;;;20.30;12.53;;;6.50;73.70;;;;;;5050976;28;20498;-67
2022/03/01 02:33:41;;;;;;;18.98;14.40;;;6.50;73.60;;;;;;5052215;28;20426;-67
2022/03/01 02:36:07;;;;;;;13.60;11.80;;;6.40;73.80;;;;;;5051746;28;20533;-78
2022/03/01 02:38:33;;;;;;;22.03;13.47;;;6.40;74.30;;;;;;5052257;28;20417;-67
2022/03/01 02:40:58;;;;;;;19.73;13.83;;;6.50;75.20;;;;;;5052233;28;20171;-67
2022/03/01 02:43:24;;;;;;;19.17;13.67;;;6.40;74.50;;;;;;5051153;28;20183;-67
2022/03/01 02:45:50;;;;;;;16.77;12.70;;;6.40;74.80;;;;;;5051965;28;20526;-67
2022/03/01 02:48:16;;;;;;;21.10;13.60;;;6.40;75.50;;;;;;5049827;28;20213;-67
2022/03/01 02:50:41;;;;;;;18.90;13.27;;;6.40;76.00;;;;;;5052106;28;20383;-67
2022/03/01 02:53:07;;;;;;;15.47;12.63;;;6.50;76.40;;;;;;5051283;28;20312;-77
2022/03/01 02:55:33;;;;;;;15.70;11.47;;;6.30;76.40;;;;;;5052111;28;20178;-67
2022/03/01 02:57:59;;;;;;;16.97;12.90;;;6.30;75.80;;;;;;5052026;28;20883;-67
2022/03/01 03:00:24;;;;;;;12.23;11.00;;;6.50;76.00;;;;;;5050881;28;20269;-67
2022/03/01 03:02:50;;;;;;;16.40;12.30;;;6.20;75.50;;;;;;5052245;28;20194;-67
2022/03/01 03:05:16;;;;;;;11.30;9.30;;;6.30;75.60;;;;;;5050974;28;20173;-67
2022/03/01 03:07:42;;;;;;;15.70;10.83;;;6.20;73.50;;;;;;5051679;28;20181;-67
2022/03/01 03:10:08;;;;;;;14.38;11.27;;;6.30;72.00;;;;;;5051067;28;20197;-77
2022/03/01 03:12:34;;;;;;;14.23;10.40;;;6.40;73.60;;;;;;5051440;28;20201;-67
2022/03/01 03:15:00;;;;;;;14.57;11.50;;;6.40;72.20;;;;;;5051648;28;20919;-67
2022/03/01 03:17:25;;;;;;;11.90;9.93;;;6.50;72.20;;;;;;5050851;28;20631;-67
2022/03/01 03:19:51;;;;;;;13.47;11.50;;;6.50;71.90;;;;;;5051768;28;20171;-67
2022/03/01 03:22:17;;;;;;;12.77;9.87;;;6.60;72.20;;;;;;5051048;28;20536;-67
2022/03/01 03:24:43;;;;;;;13.70;11.23;;;6.60;72.30;;;;;;5051239;28;20257;-67
2022/03/01 03:27:08;;;;;;;11.20;9.80;;;6.60;71.60;;;;;;5051409;28;20178;-78
2022/03/01 03:29:34;;;;;;;14.03;10.30;;;6.60;71.90;;;;;;5052068;28;20629;-67
2022/03/01 03:32:00;;;;;;;11.10;9.20;;;6.60;71.20;;;;;;5055443;28;20177;-67
2022/03/01 03:34:26;;;;;;;12.50;8.10;;;6.60;70.10;;;;;;5054757;28;20213;-67
2022/03/01 03:36:52;;;;;;;10.57;8.97;;;6.60;67.90;;;;;;5055338;28;20171;-67
2022/03/01 03:39:19;;;;;;;13.27;8.77;;;6.60;67.70;;;;;;5054709;28;20918;-67
2022/03/01 03:41:44;;;;;;;9.97;8.27;;;6.30;65.50;;;;;;5054318;28;20516;-67
2022/03/01 03:44:10;;;;;;;9.23;7.70;;;6.70;65.10;;;;;;5054936;28;20423;-75
2022/03/01 03:46:36;;;;;;;10.90;8.60;;;6.80;65.60;;;;;;5053718;28;20183;-67
2022/03/01 03:49:03;;;;;;;9.63;7.77;;;7.00;64.50;;;;;;5055368;28;20174;-67
2022/03/01 03:51:29;;;;;;;12.67;9.30;;;6.90;65.40;;;;;;5053637;28;20768;-67
2022/03/01 03:53:55;;;;;;;12.73;10.23;;;7.10;64.90;;;;;;5054714;28;20469;-67
2022/03/01 03:56:21;;;;;;;10.57;9.10;;;7.10;65.20;;;;;;5054433;28;20506;-67
2022/03/01 03:58:46;;;;;;;11.50;8.70;;;7.10;65.80;;;;;;5055191;28;20436;-67
2022/03/01 04:01:12;;;;;;;9.43;8.50;;;7.10;65.20;;;;;;5054561;28;20471;-78
2022/03/01 04:03:38;;;;;;;10.23;8.87;;;7.10;65.30;;;;;;5055092;28;20631;-67
2022/03/01 04:06:04;;;;;;;11.50;9.10;;;7.10;64.70;;;;;;5055098;28;20677;-67
2022/03/01 04:08:30;;;;;;;11.43;8.70;;;7.10;64.40;;;;;;5059683;28;20168;-67
2022/03/01 04:10:56;;;;;;;16.30;10.77;;;7.10;63.70;;;;;;5034975;28;20469;-67
2022/03/01 04:13:24;;;;;;;10.73;9.50;;;7.10;63.90;;;;;;5034238;28;20216;-67
2022/03/01 04:15:50;;;;;;;10.10;8.57;;;7.20;65.70;;;;;;5035205;28;20421;-67
2022/03/01 04:18:16;;;;;;;10.53;9.40;;;7.20;66.90;;;;;;5033826;28;20478;-67
2022/03/01 04:20:42;;;;;;;10.67;8.97;;;7.10;67.50;;;;;;5034845;28;20459;-67
2022/03/01 04:23:08;;;;;;;10.33;9.23;;;7.10;66.20;;;;;;5050329;28;20234;-67
2022/03/01 04:25:34;;;;;;;11.87;9.13;;;7.10;65.00;;;;;;5032548;28;20464;-67
2022/03/01 04:28:00;;;;;;;13.03;10.30;;;7.10;65.20;;;;;;5034979;28;20413;-67
2022/03/01 04:30:27;;;;;;;12.20;8.70;;;7.20;66.10;;;;;;5032681;28;20290;-67
2022/03/01 04:32:54;;;;;;;10.30;8.90;;;7.10;66.80;;;;;;5034495;28;20484;-67
2022/03/01 04:35:20;;;;;;;11.70;8.47;;;7.20;66.80;;;;;;5033796;28;20410;-67
2022/03/01 04:37:45;;;;;;;11.23;9.50;;;7.20;65.00;;;;;;5036144;28;20430;-68
2022/03/01 04:40:13;;;;;;;12.17;9.33;;;7.10;63.50;;;;;;5054193;28;20400;-79
2022/03/01 04:42:39;;;;;;;11.60;9.63;;;7.00;61.90;;;;;;5053162;28;20187;-67
2022/03/01 04:45:06;;;;;;;12.60;9.20;;;6.80;62.00;;;;;;5053593;28;20414;-67
2022/03/01 04:47:33;;;;;;;10.07;8.67;;;6.90;61.90;;;;;;5053531;28;20496;-67
2022/03/01 04:49:59;;;;;;;11.57;9.20;;;7.00;61.60;;;;;;5054185;28;20512;-67
2022/03/01 04:52:25;;;;;;;11.20;8.90;;;7.20;61.70;;;;;;5053261;28;20494;-68
2022/03/01 04:54:51;;;;;;;12.67;9.60;;;7.30;61.00;;;;;;5053681;28;20429;-67
2022/03/01 04:57:17;;;;;;;9.53;8.50;;;7.30;59.90;;;;;;5053054;28;20924;-68
2022/03/01 04:59:43;;;;;;;15.13;9.83;;;7.40;60.10;;;;;;5054253;28;20459;-67
2022/03/01 05:02:09;;;;;;;12.27;9.60;;;7.50;60.50;;;;;;5054110;28;20264;-67
2022/03/01 05:04:34;;;;;;;11.90;9.57;;;7.50;60.30;;;;;;5051587;28;20450;-67
2022/03/01 05:07:00;;;;;;;12.73;10.27;;;7.60;60.50;;;;;;5052775;28;20189;-65
2022/03/01 05:09:26;;;;;;;12.67;9.60;;;7.70;60.90;;;;;;5053416;28;20422;-65
2022/03/01 05:11:52;;;;;;;11.23;9.73;;;7.70;60.80;;;;;;5052277;28;20568;-65
2022/03/01 05:14:19;;;;;;;12.03;9.90;;;7.70;59.70;;;;;;5051596;28;20208;-66
2022/03/01 05:16:45;;;;;;;14.00;10.43;;;7.50;59.20;;;;;;5052736;28;20481;-65
2022/03/01 05:19:12;;;;;;;15.77;11.87;;;7.50;59.10;;;;;;5053803;28;20410;-65
2022/03/01 05:21:38;;;;;;;10.77;9.10;;;7.20;59.40;;;;;;5051144;28;20565;-65
2022/03/01 05:24:05;;;;;;;11.83;9.60;;;7.10;60.00;;;;;;5053544;28;20426;-65
2022/03/01 05:26:31;;;;;;;14.87;11.20;;;7.00;59.90;;;;;;5051292;28;20418;-65
2022/03/01 05:28:57;;;;;;;14.20;11.33;;;7.00;60.50;;;;;;5053093;28;20753;-65
2022/03/01 05:31:23;;;;;;;15.33;10.77;;;7.20;60.40;;;;;;5052243;28;20423;-65
2022/03/01 05:33:49;;;;;;;11.00;9.33;;;7.20;59.80;;;;;;5052122;28;20813;-65
2022/03/01 05:36:15;;;;;;;12.67;9.93;;;7.20;59.50;;;;;;5052574;28;20429;-80
2022/03/01 05:38:42;;;;;;;12.03;9.27;;;6.90;59.40;;;;;;5052917;28;20427;-66
2022/03/01 05:41:09;;;;;;;13.23;9.63;;;7.00;59.60;;;;;;5051945;28;20431;-67
2022/03/01 05:43:41;;;;;;;12.70;9.70;;;7.10;59.70;;;;;;5034533;28;20514;-67
2022/03/01 05:46:07;;;;;;;15.00;10.63;;;7.10;59.40;;;;;;5052625;28;20473;-66
2022/03/01 05:48:33;;;;;;;14.17;10.30;;;7.00;59.10;;;;;;5052325;28;20809;-66
2022/03/01 05:50:58;;;;;;;13.43;10.20;;;7.00;59.20;;;;;;5052461;28;20245;-66
2022/03/01 05:53:25;;;;;;;12.93;9.90;;;6.90;59.50;;;;;;5051293;28;20670;-67
2022/03/01 05:55:50;;;;;;;13.57;9.27;;;7.00;59.50;;;;;;5053046;28;20195;-66
2022/03/01 05:58:16;;;;;;;14.43;10.00;;;7.10;59.10;;;;;;5052435;28;20426;-76
2022/03/01 06:00:42;;;;;;;12.67;9.83;;;7.00;59.10;;;;;;5051179;28;20184;-66
2022/03/01 06:03:08;;;;;;;13.40;9.60;;;6.70;58.80;;;;;;5052371;28;20683;-66
2022/03/01 06:05:35;;;;;;;12.33;9.00;;;6.70;59.20;;;;;;5052078;28;20263;-66
2022/03/01 06:08:01;;;;;;;13.20;9.90;;;7.00;59.40;;;;;;5052198;28;20186;-68
2022/03/01 06:10:27;;;;;;;11.90;9.00;;;6.70;59.40;;;;;;5050196;28;20437;-67
2022/03/01 06:12:53;;;;;;;16.63;9.83;;;6.70;59.60;;;;;;5051296;28;20869;-67
2022/03/01 06:15:19;;;;;;;12.77;9.20;;;6.70;59.80;;;;;;5050868;28;20508;-67
2022/03/01 06:17:45;;;;;;;15.53;10.00;;;6.60;59.50;;;;;;5050783;28;20535;-67
2022/03/01 06:20:11;;;;;;;14.57;10.27;;;6.80;59.60;;;;;;5052610;28;20452;-67
2022/03/01 06:22:38;;;;;;;11.27;9.73;;;6.60;59.60;;;;;;5052369;28;20184;-67
2022/03/01 06:25:05;;;;;;;13.60;10.27;;;6.50;59.70;;;;;;5052904;28;20427;-67
2022/03/01 06:27:30;;;;;;;15.23;10.23;;;6.90;60.00;;;;;;5053695;28;20410;-68
2022/03/01 06:29:56;;;;;;;11.30;10.13;;;7.00;59.50;;;;;;5054615;28;21032;-68
2022/03/01 06:32:22;;;;;;;11.50;9.60;;;7.10;59.00;;;;;;5050121;28;20187;-68
2022/03/01 06:34:48;;;;;;;14.53;10.83;;;7.20;59.00;;;;;;5049284;28;20244;-67
2022/03/01 06:37:14;;;;;;;12.00;9.50;;;7.10;58.70;;;;;;5050560;28;20506;-68
2022/03/01 06:39:44;;;;;;;14.60;9.97;;;7.10;58.80;;;;;;5050439;28;20517;-67
2022/03/01 06:42:11;;;;;;;12.50;9.83;;;7.10;58.90;;;;;;5052241;28;20255;-67
2022/03/01 06:44:37;;;;;;;13.10;10.70;;;7.20;59.00;;;;;;5052140;28;20910;-67
2022/03/01 06:47:04;;;;;;;14.70;10.07;;;7.20;59.30;;;;;;5053513;28;20414;-67
2022/03/01 06:49:30;;;;;;;14.13;9.67;;;7.30;58.90;;;;;;5062733;28;20485;-67
2022/03/01 06:51:55;;;;;;;13.57;9.70;;;7.40;58.50;;;;;;5052500;28;20390;-67
2022/03/01 06:54:21;;;;;;;12.27;9.97;;;7.30;58.30;;;;;;5051775;28;20294;-67
2022/03/01 06:56:47;;;;;;;13.20;9.90;;;7.30;58.80;;;;;;5052126;28;20190;-67
2022/03/01 06:59:13;;;;;;;12.03;10.50;;;7.30;58.70;;;;;;5051922;28;20176;-68
2022/03/01 07:01:39;;;;;;;12.90;9.60;;;7.30;58.90;;;;;;5051387;28;20625;-68
2022/03/01 07:04:05;;;;;;;13.97;10.10;;;7.40;58.40;;;;;;5052141;28;20455;-67
2022/03/01 07:06:31;;;;;;;18.43;10.37;;;7.50;58.70;;;;;;5055485;28;20200;-67
2022/03/01 07:08:57;;;;;;;12.40;10.90;;;7.50;58.50;;;;;;5056382;28;20625;-67
2022/03/01 07:11:23;;;;;;;15.27;10.53;;;7.50;58.50;;;;;;5056241;28;20409;-67
2022/03/01 07:13:49;;;;;;;13.43;10.20;;;7.60;59.30;;;;;;5055713;28;20962;-67
2022/03/01 07:16:15;;;;;;;14.13;10.10;;;7.50;57.80;;;;;;5055560;28;20176;-68
2022/03/01 07:18:41;;;;;;;12.93;10.00;;;7.50;57.70;;;;;;5056489;28;20509;-67
2022/03/01 07:21:07;;;;;;;11.13;9.70;;;7.40;57.50;;;;;;5057201;28;20580;-67
2022/03/01 07:23:33;;;;;;;11.03;9.93;;;7.50;57.60;;;;;;5053880;28;20438;-68
2022/03/01 07:26:00;;;;;;;11.93;10.37;;;7.50;57.30;;;;;;5056035;28;20183;-67
2022/03/01 07:28:27;;;;;;;17.17;10.50;;;7.60;57.60;;;;;;5055163;28;20180;-67
2022/03/01 07:30:53;;;;;;;13.70;10.03;;;7.70;57.60;;;;;;5053613;28;20784;-68
2022/03/01 07:33:19;;;;;;;14.40;10.17;;;7.40;56.40;;;;;;5065616;28;20558;-67
2022/03/01 07:35:46;;;;;;;13.73;9.93;;;7.40;56.80;;;;;;5075965;28;20813;-67
2022/03/01 07:38:12;;;;;;;11.47;8.80;;;7.40;57.30;;;;;;5063898;28;20427;-67
2022/03/01 07:40:38;;;;;;;14.73;10.50;;;7.50;57.00;;;;;;5055382;28;20415;-67
2022/03/01 07:43:04;;;;;;;13.37;10.73;;;7.50;56.60;;;;;;5068112;28;20528;-68
2022/03/01 07:45:30;;;;;;;12.13;9.70;;;7.60;56.60;;;;;;5053295;28;20272;-69
2022/03/01 07:47:57;;;;;;;13.30;9.73;;;7.70;56.30;;;;;;5055264;28;20515;-68
2022/03/01 07:50:23;;;;;;;12.80;9.30;;;7.80;55.70;;;;;;5052588;28;20421;-73
2022/03/01 07:52:49;;;;;;;14.47;10.37;;;7.60;55.90;;;;;;5054574;28;20466;-68
2022/03/01 07:55:15;;;;;;;12.70;9.67;;;7.70;55.70;;;;;;5055343;28;20411;-67
2022/03/01 07:57:41;;;;;;;11.30;9.13;;;7.70;55.90;;;;;;5054105;28;20420;-67
2022/03/01 08:00:09;;;;;;;11.27;9.43;;;7.70;55.70;;;;;;5053202;28;20303;-67
2022/03/01 08:02:36;;;;;;;12.77;10.27;;;7.80;55.20;;;;;;5053774;28;20196;-67
2022/03/01 08:05:06;;;;;;;13.57;9.37;;;7.90;54.80;;;;;;5053460;28;20419;-67
2022/03/01 08:07:33;;;;;;;11.97;9.40;;;7.70;55.00;;;;;;5053384;28;20506;-67
2022/03/01 08:09:59;;;;;;;13.97;9.50;;;7.70;54.30;;;;;;5052838;28;20938;-67
2022/03/01 08:12:27;;;;;;;12.63;9.57;;;7.60;54.40;;;;;;5052987;28;20423;-74
2022/03/01 08:14:53;;;;;;;12.50;10.10;;;7.70;54.50;;;;;;5054357;28;20435;-67
2022/03/01 08:17:19;;;;;;;12.90;9.90;;;7.80;54.90;;;;;;5054122;28;20511;-67
2022/03/01 08:19:48;;;;;;;11.63;8.80;;;7.80;55.20;;;;;;5055088;28;20185;-66
2022/03/01 08:22:15;;;;;;;10.60;8.80;;;7.90;54.50;;;;;;5054998;28;20507;-67
2022/03/01 08:24:40;;;;;;;11.37;9.50;;;8.00;53.90;;;;;;5053533;28;20431;-67
2022/03/01 08:27:07;;;;;;;10.80;9.40;;;8.00;53.30;;;;;;5054153;28;20945;-67
2022/03/01 08:29:34;;;;;;;10.33;9.03;;;8.10;53.30;;;;;;5054075;28;20412;-68
2022/03/01 08:32:00;;;;;;;9.20;8.20;;;8.20;53.60;;;;;;5055026;28;20196;-67
2022/03/01 08:34:26;;;;;;;13.30;9.90;;;8.30;53.50;;;;;;5054046;28;20456;-68
2022/03/01 08:36:52;;;;;;;13.00;9.67;;;8.50;55.00;;;;;;5054695;28;20502;-67
2022/03/01 08:39:18;;;;;;;10.33;9.23;;;8.60;54.30;;;;;;5054832;28;20923;-67
2022/03/01 08:41:44;;;;;;;10.90;8.77;;;8.70;53.20;;;;;;5054119;28;20488;-67
2022/03/01 08:44:11;;;;;;;10.70;9.03;;;8.80;52.00;;;;;;5054084;28;20447;-67
2022/03/01 08:46:36;;;;;;;11.10;8.77;;;8.60;51.00;;;;;;5053704;28;20412;-67
2022/03/01 08:49:03;;;;;;;9.73;8.77;;;8.70;51.80;;;;;;5054556;28;20426;-67
2022/03/01 08:51:28;;;;;;;11.80;8.27;;;8.60;51.80;;;;;;5053730;28;20188;-75
2022/03/01 08:53:54;;;;;;;11.63;9.53;;;8.70;52.70;;;;;;5054101;28;20452;-67
2022/03/01 08:56:21;;;;;;;13.03;9.13;;;8.70;51.10;;;;;;5054601;28;20229;-67
2022/03/01 08:58:47;;;;;;;9.57;8.53;;;8.60;51.50;;;;;;5053716;28;20835;-67
2022/03/01 09:01:14;;;;;;;10.00;8.50;;;8.70;51.20;;;;;;5054322;28;20447;-67
2022/03/01 09:03:41;;;;;;;10.90;8.60;;;8.80;51.20;;;;;;5053674;28;20439;-67
2022/03/01 09:06:07;;;;;;;10.67;9.23;;;8.90;51.00;;;;;;5054242;28;20420;-67
2022/03/01 09:08:34;;;;;;;10.67;8.60;;;8.80;50.50;;;;;;5052582;28;20499;-68
2022/03/01 09:10:59;;;;;;;11.87;8.30;;;8.60;50.80;;;;;;5053870;28;20805;-67
2022/03/01 09:13:25;;;;;;;12.50;8.40;;;8.80;51.30;;;;;;5054226;28;20440;-67
2022/03/01 09:15:51;;;;;;;9.00;8.10;;;9.00;52.20;;;;;;5052652;28;20505;-67
2022/03/01 09:18:17;;;;;;;11.97;8.90;;;9.20;52.50;;;;;;5052903;28;20507;-67
2022/03/01 09:20:43;;;;;;;10.07;8.27;;;9.40;51.40;;;;;;5053420;28;20222;-67
2022/03/01 09:23:08;;;;;;;13.00;9.43;;;9.60;51.20;;;;;;5052896;28;20209;-67
2022/03/01 09:25:34;;;;;;;11.23;8.50;;;9.80;51.60;;;;;;5053488;28;20590;-70
2022/03/01 09:28:00;;;;;;;10.67;8.50;;;10.00;49.90;;;;;;5053122;28;20407;-67
2022/03/01 09:30:26;;;;;;;12.33;8.33;;;10.20;49.70;;;;;;5053837;28;20173;-67
2022/03/01 09:32:52;;;;;;;11.27;8.80;;;10.40;49.50;;;;;;5053569;28;20586;-67
2022/03/01 09:35:17;;;;;;;13.30;9.27;;;10.50;48.40;;;;;;5053828;28;20429;-67
2022/03/01 09:37:43;;;;;;;11.40;8.50;;;10.50;49.00;;;;;;5053226;28;20195;-67
2022/03/01 09:40:11;;;;;;;11.27;8.67;;;10.40;48.00;;;;;;5053683;28;20405;-67
2022/03/01 09:42:38;;;;;;;11.80;8.67;;;10.60;48.70;;;;;;5053120;28;20220;-67
2022/03/01 09:45:04;;;;;;;10.80;9.43;;;10.70;47.80;;;;;;5053321;28;20405;-67
2022/03/01 09:47:30;;;;;;;12.37;8.83;;;10.40;46.80;;;;;;5052670;28;20903;-68
2022/03/01 09:49:56;;;;;;;9.93;8.40;;;10.50;47.40;;;;;;5053576;28;20401;-67
2022/03/01 09:52:22;;;;;;;11.30;8.17;;;10.70;47.90;;;;;;5053477;28;20417;-67
2022/03/01 09:54:51;;;;;;;9.93;7.90;;;10.70;47.70;;;;;;5052883;28;20173;-67
2022/03/01 09:57:18;;;;;;;9.20;8.30;;;10.90;48.10;;;;;;5052238;28;20251;-67
2022/03/01 09:59:45;;;;;;;12.33;8.60;;;10.80;46.90;;;;;;5052588;28;20421;-67
2022/03/01 10:02:11;;;;;;;13.37;9.73;;;10.80;47.60;;;;;;5053303;28;20869;-67
2022/03/01 10:04:57;;;;;;;9.13;8.23;;;10.90;47.30;;;;;;5052667;28;20891;-68
2022/03/01 10:07:28;;;;;;;9.27;8.33;;;11.00;46.60;;;;;;5053156;28;20534;-67
2022/03/01 10:10:02;;;;;;;10.37;8.97;;;11.00;47.10;;;;;;5051416;28;20411;-67
2022/03/01 10:12:28;;;;;;;10.00;8.80;;;11.00;47.70;;;;;;5049630;28;20782;-68
2022/03/01 10:15:04;;;;;;;11.00;8.93;;;11.10;48.70;;;;;;5051404;28;20424;-67
2022/03/01 10:17:38;;;;;;;10.10;8.30;;;10.90;47.50;;;;;;5049272;28;20395;-77
2022/03/01 10:20:18;;;;;;;9.23;8.33;;;10.90;46.80;;;;;;5049116;28;20450;-67
2022/03/01 10:22:49;;;;;;;9.40;7.67;;;10.50;46.70;;;;;;5048355;28;20404;-68
2022/03/01 10:25:17;;;;;;;8.97;8.03;;;10.60;47.20;;;;;;5051546;28;20768;-68
2022/03/01 10:27:44;;;;;;;12.13;9.20;;;10.80;47.80;;;;;;5048594;28;20408;-67
2022/03/01 10:30:11;;;;;;;10.10;8.80;;;10.80;47.80;;;;;;5051263;28;20417;-68
2022/03/01 10:32:37;;;;;;;10.47;7.97;;;11.00;47.00;;;;;;5050432;28;20448;-68
2022/03/01 10:35:08;;;;;;;9.17;8.20;;;11.10;46.90;;;;;;5051384;28;20496;-67
2022/03/01 10:37:38;;;;;;;11.03;8.70;;;11.40;47.30;;;;;;5048611;28;20264;-68
2022/03/01 10:40:12;;;;;;;10.50;8.30;;;11.80;47.50;;;;;;5050457;28;20414;-68
2022/03/01 10:42:38;;;;;;;11.27;9.97;;;12.20;46.80;;;;;;5050304;28;20453;-67
2022/03/01 10:45:06;;;;;;;11.00;9.13;;;12.30;45.10;;;;;;5050645;28;20501;-67
2022/03/01 10:47:32;;;;;;;10.20;9.17;;;12.60;45.90;;;;;;5052122;28;20418;-67
2022/03/01 10:50:09;;;;;;;10.00;9.00;;;12.70;45.60;;;;;;5034608;28;20467;-67
2022/03/01 10:52:39;;;;;;;9.80;8.40;;;12.60;44.70;;;;;;5051844;28;20400;-67
2022/03/01 10:55:20;;;;;;;10.67;9.57;;;12.60;44.20;;;;;;5052367;28;20419;-67
2022/03/01 10:58:05;;;;;;;9.87;8.87;;;12.60;45.00;;;;;;5051558;28;20399;-67
2022/03/01 11:00:34;;;;;;;10.10;8.90;;;12.80;45.40;;;;;;5051510;28;20419;-68
2022/03/01 11:03:01;;;;;;;11.53;9.60;;;12.90;44.70;;;;;;5051837;28;20728;-67
2022/03/01 11:05:30;;;;;;;10.53;9.43;;;13.00;44.30;;;;;;5052141;28;20411;-67
2022/03/01 11:08:01;;;;;;;10.53;9.43;;;13.00;44.90;;;;;;5051961;28;20841;-67
2022/03/01 11:10:28;;;;;;;11.00;9.90;;;13.20;45.50;;;;;;5052351;28;20406;-67
2022/03/01 11:12:56;;;;;;;10.00;8.47;;;13.30;44.20;;;;;;5051508;28;20875;-67
2022/03/01 11:15:43;;;;;;;9.53;8.63;;;13.40;44.80;;;;;;5050996;28;20485;-67
2022/03/01 11:18:51;;;;;;;10.07;9.13;;;13.30;43.90;;;;;;5051847;28;20891;-67
2022/03/01 11:21:18;;;;;;;9.37;8.40;;;13.20;44.70;;;;;;5052364;28;20554;-67
2022/03/01 11:23:44;;;;;;;8.90;8.00;;;13.50;45.10;;;;;;5051084;28;20415;-67
2022/03/01 11:26:13;;;;;;;10.73;9.20;;;13.60;44.30;;;;;;5051199;28;20415;-67
2022/03/01 11:28:41;;;;;;;10.97;9.13;;;13.40;43.60;;;;;;5051106;28;20766;-67
2022/03/01 11:31:31;;;;;;;9.50;8.50;;;13.60;44.60;;;;;;5050381;28;20412;-67
2022/03/01 11:33:59;;;;;;;9.80;8.80;;;13.60;44.10;;;;;;5051230;28;20474;-67
2022/03/01 11:36:31;;;;;;;12.07;9.33;;;13.40;43.30;;;;;;5051638;28;20410;-67
2022/03/01 11:39:12;;;;;;;13.80;9.20;;;13.40;45.20;;;;;;5049254;28;20778;-67
2022/03/01 11:41:46;;;;;;;9.13;7.97;;;13.20;44.00;;;;;;5051073;28;20424;-67
2022/03/01 11:44:17;;;;;;;9.80;8.80;;;13.40;44.90;;;;;;5051762;28;20445;-70
2022/03/01 11:46:44;;;;;;;10.67;9.00;;;13.40;44.50;;;;;;5051184;28;20494;-70
2022/03/01 11:49:14;;;;;;;9.43;8.43;;;13.30;44.30;;;;;;5051199;28;20417;-70
2022/03/01 11:51:46;;;;;;;9.97;8.97;;;13.40;44.90;;;;;;5051767;28;20943;-67
2022/03/01 11:54:17;;;;;;;10.90;9.20;;;13.20;44.30;;;;;;5055700;28;20449;-67
2022/03/01 11:56:44;;;;;;;10.57;9.50;;;13.30;46.00;;;;;;5055239;28;20389;-68
2022/03/01 11:59:12;;;;;;;10.30;9.20;;;13.30;45.90;;;;;;5055873;28;20414;-67
2022/03/01 12:01:39;;;;;;;13.20;10.27;;;13.30;46.50;;;;;;5054908;28;20420;-67
2022/03/01 12:04:07;;;;;;;10.30;8.83;;;13.30;45.80;;;;;;5055009;28;20414;-67
2022/03/01 12:06:35;;;;;;;11.17;8.77;;;13.30;45.20;;;;;;5054406;28;20454;-68
2022/03/01 12:09:05;;;;;;;10.63;8.57;;;13.50;45.70;;;;;;5055343;28;20557;-67
2022/03/01 12:11:49;;;;;;;11.43;9.30;;;13.70;47.00;;;;;;5054203;28;20422;-68
2022/03/01 12:14:19;;;;;;;12.10;10.23;;;13.90;47.50;;;;;;5055335;28;20480;-67
2022/03/01 12:16:46;;;;;;;10.70;9.53;;;13.80;45.00;;;;;;5054635;28;20403;-67
2022/03/01 12:19:20;;;;;;;10.80;9.13;;;13.90;44.50;;;;;;5055256;28;20477;-67
2022/03/01 12:21:58;;;;;;;12.10;10.00;;;13.90;45.20;;;;;;5054827;28;20522;-67
2022/03/01 12:24:27;;;;;;;11.00;9.57;;;13.60;43.60;;;;;;5053879;28;20476;-67
2022/03/01 12:27:00;;;;;;;11.27;10.00;;;13.50;44.20;;;;;;5054101;28;20406;-67
2022/03/01 12:29:35;;;;;;;12.13;10.37;;;13.40;44.10;;;;;;5054495;28;20407;-67
2022/03/01 12:32:04;;;;;;;11.07;9.13;;;13.50;44.40;;;;;;5054466;28;20402;-67
2022/03/01 12:34:32;;;;;;;11.40;8.63;;;13.60;44.50;;;;;;5053930;28;20447;-72
2022/03/01 12:37:01;;;;;;;10.23;9.17;;;13.80;45.00;;;;;;5055061;28;20426;-67
2022/03/01 12:39:27;;;;;;;9.23;8.20;;;13.90;44.40;;;;;;5054854;28;20494;-67
2022/03/01 12:41:54;;;;;;;11.60;9.30;;;14.00;45.00;;;;;;5054241;28;20527;-67